sensor_id;sensor_type;location;lat;lon;timestamp;temperature;humidity
15364;DHT22;7781;49.690;6.472;2022-11-14T00:02:47;2.20;99.90
15364;DHT22;7781;49.690;6.472;2022-11-14T00:05:38;2.20;99.90
15364;DHT22;7781;49.690;6.472;2022-11-14T00:08:27;2.10;99.90
15364;DHT22;7781;49.690;6.472;2022-11-14T00:11:15;2.00;99.90
15364;DHT22;7781;49.690;6.472;2022-11-14T00:14:04;2.00;99.90
15364;DHT22;7781;49.690;6.472;2022-11-14T00:16:52;2.00;99.90
15364;DHT22;7781;49.690;6.472;2022-11-14T00:19:41;2.00;99.90
15364;DHT22;7781;49.690;6.472;2022-11-14T00:22:28;2.00;99.90
15364;DHT22;7781;49.690;6.472;2022-11-14T00:25:15;2.00;99.90
15364;DHT22;7781;49.690;6.472;2022-11-14T00:28:03;2.00;99.90
15364;DHT22;7781;49.690;6.472;2022-11-14T00:30:50;2.00;99.90
15364;DHT22;7781;49.690;6.472;2022-11-14T00:33:39;1.90;99.90
15364;DHT22;7781;49.690;6.472;2022-11-14T00:36:28;1.80;99.90
15364;DHT22;7781;49.690;6.472;2022-11-14T00:39:16;2.00;99.90
15364;DHT22;7781;49.690;6.472;2022-11-14T00:42:06;2.10;99.90
15364;DHT22;7781;49.690;6.472;2022-11-14T00:44:54;2.30;99.90
15364;DHT22;7781;49.690;6.472;2022-11-14T00:47:41;2.20;99.90
15364;DHT22;7781;49.690;6.472;2022-11-14T00:50:34;1.90;99.90
15364;DHT22;7781;49.690;6.472;2022-11-14T00:53:22;1.80;99.90
15364;DHT22;7781;49.690;6.472;2022-11-14T00:56:09;1.70;99.90
15364;DHT22;7781;49.690;6.472;2022-11-14T00:58:57;1.70;99.90
15364;DHT22;7781;49.690;6.472;2022-11-14T01:01:44;1.80;99.90
15364;DHT22;7781;49.690;6.472;2022-11-14T01:04:31;1.80;99.90
15364;DHT22;7781;49.690;6.472;2022-11-14T01:07:20;1.70;99.90
15364;DHT22;7781;49.690;6.472;2022-11-14T01:10:09;1.70;99.90
15364;DHT22;7781;49.690;6.472;2022-11-14T01:12:56;1.60;99.90
15364;DHT22;7781;49.690;6.472;2022-11-14T01:15:46;1.60;99.90
15364;DHT22;7781;49.690;6.472;2022-11-14T01:18:35;1.70;99.90
15364;DHT22;7781;49.690;6.472;2022-11-14T01:21:22;1.80;99.90
15364;DHT22;7781;49.690;6.472;2022-11-14T01:24:11;1.90;99.90
15364;DHT22;7781;49.690;6.472;2022-11-14T01:26:58;2.00;99.90
15364;DHT22;7781;49.690;6.472;2022-11-14T01:29:45;2.10;99.90
15364;DHT22;7781;49.690;6.472;2022-11-14T01:32:32;2.30;99.90
15364;DHT22;7781;49.690;6.472;2022-11-14T01:35:19;2.30;99.90
15364;DHT22;7781;49.690;6.472;2022-11-14T01:38:12;2.40;99.90
15364;DHT22;7781;49.690;6.472;2022-11-14T01:41:03;2.50;99.90
15364;DHT22;7781;49.690;6.472;2022-11-14T01:43:51;2.50;99.90
15364;DHT22;7781;49.690;6.472;2022-11-14T01:46:41;2.60;99.90
15364;DHT22;7781;49.690;6.472;2022-11-14T01:49:37;2.60;99.90
15364;DHT22;7781;49.690;6.472;2022-11-14T01:52:27;2.60;99.90
15364;DHT22;7781;49.690;6.472;2022-11-14T01:55:17;2.70;99.90
15364;DHT22;7781;49.690;6.472;2022-11-14T01:58:11;2.70;99.90
15364;DHT22;7781;49.690;6.472;2022-11-14T02:01:02;2.70;99.90
15364;DHT22;7781;49.690;6.472;2022-11-14T02:03:55;2.80;99.90
15364;DHT22;7781;49.690;6.472;2022-11-14T02:06:45;2.80;99.90
15364;DHT22;7781;49.690;6.472;2022-11-14T02:09:36;2.90;99.90
15364;DHT22;7781;49.690;6.472;2022-11-14T02:12:24;2.90;99.90
15364;DHT22;7781;49.690;6.472;2022-11-14T02:15:14;3.00;99.90
15364;DHT22;7781;49.690;6.472;2022-11-14T02:18:02;3.10;99.90
15364;DHT22;7781;49.690;6.472;2022-11-14T02:20:51;3.10;99.90
15364;DHT22;7781;49.690;6.472;2022-11-14T02:23:39;3.20;99.90
15364;DHT22;7781;49.690;6.472;2022-11-14T02:26:29;3.30;99.90
15364;DHT22;7781;49.690;6.472;2022-11-14T02:29:21;3.40;99.90
15364;DHT22;7781;49.690;6.472;2022-11-14T02:32:08;3.50;99.90
15364;DHT22;7781;49.690;6.472;2022-11-14T02:34:56;3.50;99.90
15364;DHT22;7781;49.690;6.472;2022-11-14T02:37:45;3.50;99.90
15364;DHT22;7781;49.690;6.472;2022-11-14T02:40:34;3.50;99.90
15364;DHT22;7781;49.690;6.472;2022-11-14T02:43:22;3.50;99.90
15364;DHT22;7781;49.690;6.472;2022-11-14T02:46:09;3.50;99.90
15364;DHT22;7781;49.690;6.472;2022-11-14T02:48:56;3.50;99.90
15364;DHT22;7781;49.690;6.472;2022-11-14T02:51:45;3.60;99.90
15364;DHT22;7781;49.690;6.472;2022-11-14T02:54:38;3.60;99.90
15364;DHT22;7781;49.690;6.472;2022-11-14T02:57:27;3.60;99.90
15364;DHT22;7781;49.690;6.472;2022-11-14T03:00:17;3.70;99.90
15364;DHT22;7781;49.690;6.472;2022-11-14T03:03:04;3.70;99.90
15364;DHT22;7781;49.690;6.472;2022-11-14T03:05:52;3.70;99.90
15364;DHT22;7781;49.690;6.472;2022-11-14T03:08:41;3.60;99.90
15364;DHT22;7781;49.690;6.472;2022-11-14T03:11:30;3.60;99.90
15364;DHT22;7781;49.690;6.472;2022-11-14T03:14:19;3.60;99.90
15364;DHT22;7781;49.690;6.472;2022-11-14T03:17:06;3.50;99.90
15364;DHT22;7781;49.690;6.472;2022-11-14T03:19:54;3.60;99.90
15364;DHT22;7781;49.690;6.472;2022-11-14T03:22:43;3.50;99.90
15364;DHT22;7781;49.690;6.472;2022-11-14T03:25:33;3.50;99.90
15364;DHT22;7781;49.690;6.472;2022-11-14T03:28:23;3.60;99.90
15364;DHT22;7781;49.690;6.472;2022-11-14T03:31:13;3.70;99.90
15364;DHT22;7781;49.690;6.472;2022-11-14T03:34:03;3.70;99.90
15364;DHT22;7781;49.690;6.472;2022-11-14T03:36:50;3.80;99.90
15364;DHT22;7781;49.690;6.472;2022-11-14T03:39:37;3.80;99.90
15364;DHT22;7781;49.690;6.472;2022-11-14T03:42:33;3.80;99.90
15364;DHT22;7781;49.690;6.472;2022-11-14T03:45:21;3.80;99.90
15364;DHT22;7781;49.690;6.472;2022-11-14T03:48:10;3.90;99.90
15364;DHT22;7781;49.690;6.472;2022-11-14T03:51:00;3.90;99.90
15364;DHT22;7781;49.690;6.472;2022-11-14T03:53:48;3.90;99.90
15364;DHT22;7781;49.690;6.472;2022-11-14T03:56:35;3.90;99.90
15364;DHT22;7781;49.690;6.472;2022-11-14T03:59:23;3.90;99.90
15364;DHT22;7781;49.690;6.472;2022-11-14T04:02:11;3.90;99.90
15364;DHT22;7781;49.690;6.472;2022-11-14T04:04:59;4.00;99.90
15364;DHT22;7781;49.690;6.472;2022-11-14T04:07:46;4.10;99.90
15364;DHT22;7781;49.690;6.472;2022-11-14T04:10:35;4.10;99.90
15364;DHT22;7781;49.690;6.472;2022-11-14T04:13:23;4.10;99.90
15364;DHT22;7781;49.690;6.472;2022-11-14T04:16:10;4.20;99.90
15364;DHT22;7781;49.690;6.472;2022-11-14T04:18:59;4.20;99.90
15364;DHT22;7781;49.690;6.472;2022-11-14T04:21:49;4.20;99.90
15364;DHT22;7781;49.690;6.472;2022-11-14T04:24:37;4.30;99.90
15364;DHT22;7781;49.690;6.472;2022-11-14T04:27:26;4.30;99.90
15364;DHT22;7781;49.690;6.472;2022-11-14T04:30:14;4.30;99.90
15364;DHT22;7781;49.690;6.472;2022-11-14T04:33:02;4.30;99.90
15364;DHT22;7781;49.690;6.472;2022-11-14T04:35:52;4.30;99.90
15364;DHT22;7781;49.690;6.472;2022-11-14T04:38:40;4.30;99.90
15364;DHT22;7781;49.690;6.472;2022-11-14T04:41:28;4.30;99.90
15364;DHT22;7781;49.690;6.472;2022-11-14T04:44:16;4.30;99.90
15364;DHT22;7781;49.690;6.472;2022-11-14T04:47:03;4.30;99.90
15364;DHT22;7781;49.690;6.472;2022-11-14T04:49:54;4.30;99.90
15364;DHT22;7781;49.690;6.472;2022-11-14T04:52:43;4.30;99.90
15364;DHT22;7781;49.690;6.472;2022-11-14T04:55:32;4.40;99.90
15364;DHT22;7781;49.690;6.472;2022-11-14T04:58:22;4.40;99.90
15364;DHT22;7781;49.690;6.472;2022-11-14T05:01:10;4.40;99.90
15364;DHT22;7781;49.690;6.472;2022-11-14T05:03:58;4.40;99.90
15364;DHT22;7781;49.690;6.472;2022-11-14T05:06:46;4.40;99.90
15364;DHT22;7781;49.690;6.472;2022-11-14T05:09:34;4.40;99.90
15364;DHT22;7781;49.690;6.472;2022-11-14T05:12:21;4.40;99.90
15364;DHT22;7781;49.690;6.472;2022-11-14T05:15:09;4.40;99.90
15364;DHT22;7781;49.690;6.472;2022-11-14T05:17:56;4.40;99.90
15364;DHT22;7781;49.690;6.472;2022-11-14T05:20:44;4.40;99.90
15364;DHT22;7781;49.690;6.472;2022-11-14T05:23:31;4.40;99.90
15364;DHT22;7781;49.690;6.472;2022-11-14T05:26:20;4.40;99.90
15364;DHT22;7781;49.690;6.472;2022-11-14T05:29:09;4.40;99.90
15364;DHT22;7781;49.690;6.472;2022-11-14T05:31:56;4.40;99.90
15364;DHT22;7781;49.690;6.472;2022-11-14T05:34:46;4.40;99.90
15364;DHT22;7781;49.690;6.472;2022-11-14T05:37:34;4.40;99.90
15364;DHT22;7781;49.690;6.472;2022-11-14T05:40:25;4.40;99.90
15364;DHT22;7781;49.690;6.472;2022-11-14T05:43:14;4.40;99.90
15364;DHT22;7781;49.690;6.472;2022-11-14T05:46:02;4.30;99.90
15364;DHT22;7781;49.690;6.472;2022-11-14T05:48:51;4.30;99.90
15364;DHT22;7781;49.690;6.472;2022-11-14T05:51:40;4.30;99.90
15364;DHT22;7781;49.690;6.472;2022-11-14T05:54:27;4.30;99.90
15364;DHT22;7781;49.690;6.472;2022-11-14T05:57:16;4.30;99.90
15364;DHT22;7781;49.690;6.472;2022-11-14T06:00:11;4.30;99.90
15364;DHT22;7781;49.690;6.472;2022-11-14T06:02:58;4.30;99.90
15364;DHT22;7781;49.690;6.472;2022-11-14T06:05:46;4.40;99.90
15364;DHT22;7781;49.690;6.472;2022-11-14T06:08:34;4.30;99.90
15364;DHT22;7781;49.690;6.472;2022-11-14T06:11:26;4.40;99.90
15364;DHT22;7781;49.690;6.472;2022-11-14T06:14:15;4.50;99.90
15364;DHT22;7781;49.690;6.472;2022-11-14T06:17:07;4.50;99.90
15364;DHT22;7781;49.690;6.472;2022-11-14T06:19:54;4.50;99.90
15364;DHT22;7781;49.690;6.472;2022-11-14T06:22:48;4.50;99.90
15364;DHT22;7781;49.690;6.472;2022-11-14T06:25:35;4.50;99.90
15364;DHT22;7781;49.690;6.472;2022-11-14T06:28:23;4.50;99.90
15364;DHT22;7781;49.690;6.472;2022-11-14T06:31:12;4.50;99.90
15364;DHT22;7781;49.690;6.472;2022-11-14T06:34:03;4.50;99.90
15364;DHT22;7781;49.690;6.472;2022-11-14T06:36:53;4.50;99.90
15364;DHT22;7781;49.690;6.472;2022-11-14T06:39:41;4.50;99.90
15364;DHT22;7781;49.690;6.472;2022-11-14T06:42:29;4.50;99.90
15364;DHT22;7781;49.690;6.472;2022-11-14T06:45:17;4.50;99.90
15364;DHT22;7781;49.690;6.472;2022-11-14T06:48:05;4.60;99.90
15364;DHT22;7781;49.690;6.472;2022-11-14T06:50:55;4.60;99.90
15364;DHT22;7781;49.690;6.472;2022-11-14T06:53:42;4.60;99.90
15364;DHT22;7781;49.690;6.472;2022-11-14T06:56:31;4.60;99.90
15364;DHT22;7781;49.690;6.472;2022-11-14T06:59:18;4.60;99.90
15364;DHT22;7781;49.690;6.472;2022-11-14T07:02:05;4.60;99.90
15364;DHT22;7781;49.690;6.472;2022-11-14T07:04:52;4.60;99.90
15364;DHT22;7781;49.690;6.472;2022-11-14T07:07:42;4.60;99.90
15364;DHT22;7781;49.690;6.472;2022-11-14T07:10:30;4.60;99.90
15364;DHT22;7781;49.690;6.472;2022-11-14T07:13:17;4.50;99.90
15364;DHT22;7781;49.690;6.472;2022-11-14T07:16:05;4.50;99.90
15364;DHT22;7781;49.690;6.472;2022-11-14T07:18:52;4.50;99.90
15364;DHT22;7781;49.690;6.472;2022-11-14T07:21:41;4.50;99.90
15364;DHT22;7781;49.690;6.472;2022-11-14T07:24:29;4.50;99.90
15364;DHT22;7781;49.690;6.472;2022-11-14T07:27:18;4.60;99.90
15364;DHT22;7781;49.690;6.472;2022-11-14T07:30:08;4.60;99.90
15364;DHT22;7781;49.690;6.472;2022-11-14T07:33:00;4.60;99.90
15364;DHT22;7781;49.690;6.472;2022-11-14T07:35:46;4.70;99.90
15364;DHT22;7781;49.690;6.472;2022-11-14T07:38:37;4.70;99.90
15364;DHT22;7781;49.690;6.472;2022-11-14T07:41:31;4.80;99.90
15364;DHT22;7781;49.690;6.472;2022-11-14T07:44:19;4.80;99.90
15364;DHT22;7781;49.690;6.472;2022-11-14T07:47:07;4.80;99.90
15364;DHT22;7781;49.690;6.472;2022-11-14T07:49:55;4.80;99.90
15364;DHT22;7781;49.690;6.472;2022-11-14T07:52:42;4.80;99.90
15364;DHT22;7781;49.690;6.472;2022-11-14T07:55:34;4.80;99.90
15364;DHT22;7781;49.690;6.472;2022-11-14T07:58:23;4.90;99.90
15364;DHT22;7781;49.690;6.472;2022-11-14T08:01:12;4.90;99.90
15364;DHT22;7781;49.690;6.472;2022-11-14T08:03:59;4.90;99.90
15364;DHT22;7781;49.690;6.472;2022-11-14T08:06:47;4.90;99.90
15364;DHT22;7781;49.690;6.472;2022-11-14T08:09:34;4.90;99.90
15364;DHT22;7781;49.690;6.472;2022-11-14T08:12:24;4.90;99.90
15364;DHT22;7781;49.690;6.472;2022-11-14T08:15:21;5.00;99.90
15364;DHT22;7781;49.690;6.472;2022-11-14T08:18:00;5.00;99.90
15364;DHT22;7781;49.690;6.472;2022-11-14T08:20:48;4.90;99.90
15364;DHT22;7781;49.690;6.472;2022-11-14T08:23:37;4.90;99.90
15364;DHT22;7781;49.690;6.472;2022-11-14T08:26:25;4.90;99.90
15364;DHT22;7781;49.690;6.472;2022-11-14T08:29:18;5.00;99.90
15364;DHT22;7781;49.690;6.472;2022-11-14T08:32:08;5.00;99.90
15364;DHT22;7781;49.690;6.472;2022-11-14T08:34:56;5.00;99.90
15364;DHT22;7781;49.690;6.472;2022-11-14T08:37:45;5.00;99.90
15364;DHT22;7781;49.690;6.472;2022-11-14T08:40:35;5.10;99.90
15364;DHT22;7781;49.690;6.472;2022-11-14T08:43:22;5.10;99.90
15364;DHT22;7781;49.690;6.472;2022-11-14T08:46:09;5.10;99.90
15364;DHT22;7781;49.690;6.472;2022-11-14T08:49:00;5.20;99.90
15364;DHT22;7781;49.690;6.472;2022-11-14T08:51:50;5.20;99.90
15364;DHT22;7781;49.690;6.472;2022-11-14T08:54:38;5.20;99.90
15364;DHT22;7781;49.690;6.472;2022-11-14T08:57:25;5.20;99.90
15364;DHT22;7781;49.690;6.472;2022-11-14T09:00:13;5.20;99.90
15364;DHT22;7781;49.690;6.472;2022-11-14T09:03:06;5.20;99.90
15364;DHT22;7781;49.690;6.472;2022-11-14T09:05:55;5.30;99.90
15364;DHT22;7781;49.690;6.472;2022-11-14T09:08:44;5.30;99.90
15364;DHT22;7781;49.690;6.472;2022-11-14T09:11:31;5.40;99.90
15364;DHT22;7781;49.690;6.472;2022-11-14T09:14:20;5.40;99.90
15364;DHT22;7781;49.690;6.472;2022-11-14T09:17:07;5.50;99.90
15364;DHT22;7781;49.690;6.472;2022-11-14T09:19:54;5.50;99.90
15364;DHT22;7781;49.690;6.472;2022-11-14T09:22:43;5.50;99.90
15364;DHT22;7781;49.690;6.472;2022-11-14T09:25:32;5.40;99.90
15364;DHT22;7781;49.690;6.472;2022-11-14T09:28:22;5.40;99.90
15364;DHT22;7781;49.690;6.472;2022-11-14T09:31:10;5.40;99.90
15364;DHT22;7781;49.690;6.472;2022-11-14T09:34:00;5.40;99.90
15364;DHT22;7781;49.690;6.472;2022-11-14T09:36:47;5.40;99.90
15364;DHT22;7781;49.690;6.472;2022-11-14T09:39:35;5.40;99.90
15364;DHT22;7781;49.690;6.472;2022-11-14T09:42:35;5.50;99.90
15364;DHT22;7781;49.690;6.472;2022-11-14T09:45:23;5.40;99.90
15364;DHT22;7781;49.690;6.472;2022-11-14T09:48:13;5.50;99.90
15364;DHT22;7781;49.690;6.472;2022-11-14T09:51:06;5.50;99.90
15364;DHT22;7781;49.690;6.472;2022-11-14T09:53:59;5.50;99.90
15364;DHT22;7781;49.690;6.472;2022-11-14T09:56:54;5.50;99.90
15364;DHT22;7781;49.690;6.472;2022-11-14T09:59:44;5.50;99.90
15364;DHT22;7781;49.690;6.472;2022-11-14T10:02:50;5.60;99.90
15364;DHT22;7781;49.690;6.472;2022-11-14T10:05:49;5.60;99.90
15364;DHT22;7781;49.690;6.472;2022-11-14T10:08:50;5.70;99.90
15364;DHT22;7781;49.690;6.472;2022-11-14T10:11:46;5.70;99.90
15364;DHT22;7781;49.690;6.472;2022-11-14T10:14:56;5.80;99.90
15364;DHT22;7781;49.690;6.472;2022-11-14T10:17:59;5.80;99.90
15364;DHT22;7781;49.690;6.472;2022-11-14T10:21:03;5.80;99.90
15364;DHT22;7781;49.690;6.472;2022-11-14T10:24:00;5.80;99.90
15364;DHT22;7781;49.690;6.472;2022-11-14T10:26:59;5.80;99.90
15364;DHT22;7781;49.690;6.472;2022-11-14T10:30:10;5.80;99.90
15364;DHT22;7781;49.690;6.472;2022-11-14T10:33:19;5.90;99.90
15364;DHT22;7781;49.690;6.472;2022-11-14T10:36:19;5.90;99.90
15364;DHT22;7781;49.690;6.472;2022-11-14T10:39:15;5.90;99.90
15364;DHT22;7781;49.690;6.472;2022-11-14T10:42:11;5.80;99.90
15364;DHT22;7781;49.690;6.472;2022-11-14T10:45:03;5.80;99.90
15364;DHT22;7781;49.690;6.472;2022-11-14T10:47:56;5.80;99.90
15364;DHT22;7781;49.690;6.472;2022-11-14T10:50:50;5.90;99.90
15364;DHT22;7781;49.690;6.472;2022-11-14T10:53:46;5.90;99.90
15364;DHT22;7781;49.690;6.472;2022-11-14T10:56:45;5.90;99.90
15364;DHT22;7781;49.690;6.472;2022-11-14T10:59:33;5.90;99.90
15364;DHT22;7781;49.690;6.472;2022-11-14T11:02:20;5.90;99.90
15364;DHT22;7781;49.690;6.472;2022-11-14T11:05:14;6.00;99.90
15364;DHT22;7781;49.690;6.472;2022-11-14T11:08:10;6.00;99.90
15364;DHT22;7781;49.690;6.472;2022-11-14T11:11:28;6.10;99.90
15364;DHT22;7781;49.690;6.472;2022-11-14T11:14:17;6.10;99.90
15364;DHT22;7781;49.690;6.472;2022-11-14T11:17:18;6.10;99.90
15364;DHT22;7781;49.690;6.472;2022-11-14T11:20:32;6.20;99.90
15364;DHT22;7781;49.690;6.472;2022-11-14T11:23:24;6.20;99.90
15364;DHT22;7781;49.690;6.472;2022-11-14T11:26:18;6.30;99.90
15364;DHT22;7781;49.690;6.472;2022-11-14T11:29:14;6.30;99.90
15364;DHT22;7781;49.690;6.472;2022-11-14T11:32:07;6.40;99.90
15364;DHT22;7781;49.690;6.472;2022-11-14T11:35:00;6.40;99.90
15364;DHT22;7781;49.690;6.472;2022-11-14T11:37:54;6.50;99.90
15364;DHT22;7781;49.690;6.472;2022-11-14T11:40:43;6.50;99.90
15364;DHT22;7781;49.690;6.472;2022-11-14T11:43:39;6.50;99.90
15364;DHT22;7781;49.690;6.472;2022-11-14T11:46:33;6.60;99.90
15364;DHT22;7781;49.690;6.472;2022-11-14T11:49:30;6.50;99.90
15364;DHT22;7781;49.690;6.472;2022-11-14T11:52:29;6.60;99.90
15364;DHT22;7781;49.690;6.472;2022-11-14T11:55:24;6.60;99.90
15364;DHT22;7781;49.690;6.472;2022-11-14T11:58:18;6.60;99.90
15364;DHT22;7781;49.690;6.472;2022-11-14T12:01:09;6.60;99.90
15364;DHT22;7781;49.690;6.472;2022-11-14T12:03:59;6.60;99.90
15364;DHT22;7781;49.690;6.472;2022-11-14T12:06:56;6.70;99.90
15364;DHT22;7781;49.690;6.472;2022-11-14T12:09:44;6.70;99.90
15364;DHT22;7781;49.690;6.472;2022-11-14T12:13:13;6.60;99.90
15364;DHT22;7781;49.690;6.472;2022-11-14T12:16:20;6.60;99.90
15364;DHT22;7781;49.690;6.472;2022-11-14T12:19:41;6.50;99.90
15364;DHT22;7781;49.690;6.472;2022-11-14T12:22:52;6.50;99.90
15364;DHT22;7781;49.690;6.472;2022-11-14T12:25:47;6.40;99.90
15364;DHT22;7781;49.690;6.472;2022-11-14T12:28:55;6.40;99.90
15364;DHT22;7781;49.690;6.472;2022-11-14T12:31:45;6.40;99.90
15364;DHT22;7781;49.690;6.472;2022-11-14T12:34:36;6.40;99.90
15364;DHT22;7781;49.690;6.472;2022-11-14T12:37:30;6.40;99.90
15364;DHT22;7781;49.690;6.472;2022-11-14T12:40:30;6.40;99.90
15364;DHT22;7781;49.690;6.472;2022-11-14T12:43:31;6.40;99.90
15364;DHT22;7781;49.690;6.472;2022-11-14T12:46:23;6.40;99.90
15364;DHT22;7781;49.690;6.472;2022-11-14T12:49:38;6.40;99.90
15364;DHT22;7781;49.690;6.472;2022-11-14T12:52:45;6.40;99.90
15364;DHT22;7781;49.690;6.472;2022-11-14T12:55:55;6.40;99.90
15364;DHT22;7781;49.690;6.472;2022-11-14T12:59:11;6.40;99.90
15364;DHT22;7781;49.690;6.472;2022-11-14T13:05:22;6.50;99.90
15364;DHT22;7781;49.690;6.472;2022-11-14T13:08:36;6.50;99.90
15364;DHT22;7781;49.690;6.472;2022-11-14T13:11:37;6.50;99.90
15364;DHT22;7781;49.690;6.472;2022-11-14T13:14:49;6.50;99.90
15364;DHT22;7781;49.690;6.472;2022-11-14T13:18:21;6.60;99.90
15364;DHT22;7781;49.690;6.472;2022-11-14T13:21:29;6.60;99.90
15364;DHT22;7781;49.690;6.472;2022-11-14T13:27:50;6.60;99.90
15364;DHT22;7781;49.690;6.472;2022-11-14T13:31:15;6.70;99.90
15364;DHT22;7781;49.690;6.472;2022-11-14T13:37:38;6.70;99.90
15364;DHT22;7781;49.690;6.472;2022-11-14T13:40:33;6.70;99.90
15364;DHT22;7781;49.690;6.472;2022-11-14T13:43:31;6.80;99.90
15364;DHT22;7781;49.690;6.472;2022-11-14T13:46:31;6.80;99.90
15364;DHT22;7781;49.690;6.472;2022-11-14T13:49:49;6.90;99.90
15364;DHT22;7781;49.690;6.472;2022-11-14T13:52:42;7.00;99.90
15364;DHT22;7781;49.690;6.472;2022-11-14T13:55:37;6.90;99.90
15364;DHT22;7781;49.690;6.472;2022-11-14T14:02:26;7.00;99.90
15364;DHT22;7781;49.690;6.472;2022-11-14T14:05:34;7.00;99.90
15364;DHT22;7781;49.690;6.472;2022-11-14T14:08:40;6.90;99.90
15364;DHT22;7781;49.690;6.472;2022-11-14T14:11:47;6.90;99.90
15364;DHT22;7781;49.690;6.472;2022-11-14T14:15:02;6.90;99.90
15364;DHT22;7781;49.690;6.472;2022-11-14T14:17:58;6.90;99.90
15364;DHT22;7781;49.690;6.472;2022-11-14T14:20:52;6.90;99.90
15364;DHT22;7781;49.690;6.472;2022-11-14T14:23:48;6.90;99.90
15364;DHT22;7781;49.690;6.472;2022-11-14T14:26:53;6.90;99.90
15364;DHT22;7781;49.690;6.472;2022-11-14T14:29:51;6.90;99.90
15364;DHT22;7781;49.690;6.472;2022-11-14T14:33:03;6.90;99.90
15364;DHT22;7781;49.690;6.472;2022-11-14T14:35:55;6.80;99.90
15364;DHT22;7781;49.690;6.472;2022-11-14T14:38:49;6.80;99.90
15364;DHT22;7781;49.690;6.472;2022-11-14T14:41:37;6.80;99.90
15364;DHT22;7781;49.690;6.472;2022-11-14T14:44:26;6.80;99.90
15364;DHT22;7781;49.690;6.472;2022-11-14T14:47:15;6.80;99.90
15364;DHT22;7781;49.690;6.472;2022-11-14T14:50:07;6.80;99.90
15364;DHT22;7781;49.690;6.472;2022-11-14T14:53:00;6.80;99.90
15364;DHT22;7781;49.690;6.472;2022-11-14T14:55:56;6.80;99.90
15364;DHT22;7781;49.690;6.472;2022-11-14T14:58:44;6.80;99.90
15364;DHT22;7781;49.690;6.472;2022-11-14T15:01:32;6.80;99.90
15364;DHT22;7781;49.690;6.472;2022-11-14T15:04:23;6.80;99.90
15364;DHT22;7781;49.690;6.472;2022-11-14T15:07:19;6.80;99.90
15364;DHT22;7781;49.690;6.472;2022-11-14T15:10:20;6.80;99.90
15364;DHT22;7781;49.690;6.472;2022-11-14T15:13:10;6.80;99.90
15364;DHT22;7781;49.690;6.472;2022-11-14T15:16:00;6.80;99.90
15364;DHT22;7781;49.690;6.472;2022-11-14T15:18:49;6.80;99.90
15364;DHT22;7781;49.690;6.472;2022-11-14T15:21:38;6.70;99.90
15364;DHT22;7781;49.690;6.472;2022-11-14T15:24:25;6.70;99.90
15364;DHT22;7781;49.690;6.472;2022-11-14T15:27:13;6.70;99.90
15364;DHT22;7781;49.690;6.472;2022-11-14T15:30:05;6.70;99.90
15364;DHT22;7781;49.690;6.472;2022-11-14T15:33:04;6.70;99.90
15364;DHT22;7781;49.690;6.472;2022-11-14T15:36:04;6.70;99.90
15364;DHT22;7781;49.690;6.472;2022-11-14T15:38:59;6.70;99.90
15364;DHT22;7781;49.690;6.472;2022-11-14T15:41:47;6.70;99.90
15364;DHT22;7781;49.690;6.472;2022-11-14T15:44:34;6.70;99.90
15364;DHT22;7781;49.690;6.472;2022-11-14T15:47:26;6.70;99.90
15364;DHT22;7781;49.690;6.472;2022-11-14T15:50:26;6.70;99.90
15364;DHT22;7781;49.690;6.472;2022-11-14T15:53:20;6.70;99.90
15364;DHT22;7781;49.690;6.472;2022-11-14T15:56:12;6.70;99.90
15364;DHT22;7781;49.690;6.472;2022-11-14T15:59:00;6.80;99.90
15364;DHT22;7781;49.690;6.472;2022-11-14T16:01:51;6.80;99.90
15364;DHT22;7781;49.690;6.472;2022-11-14T16:04:42;6.80;99.90
15364;DHT22;7781;49.690;6.472;2022-11-14T16:07:32;6.70;99.90
15364;DHT22;7781;49.690;6.472;2022-11-14T16:10:20;6.80;99.90
15364;DHT22;7781;49.690;6.472;2022-11-14T16:13:09;6.80;99.90
15364;DHT22;7781;49.690;6.472;2022-11-14T16:15:56;6.80;99.90
15364;DHT22;7781;49.690;6.472;2022-11-14T16:18:44;6.70;99.90
15364;DHT22;7781;49.690;6.472;2022-11-14T16:21:37;6.80;99.90
15364;DHT22;7781;49.690;6.472;2022-11-14T16:24:25;6.80;99.90
15364;DHT22;7781;49.690;6.472;2022-11-14T16:27:18;6.80;99.90
15364;DHT22;7781;49.690;6.472;2022-11-14T16:30:15;6.80;99.90
15364;DHT22;7781;49.690;6.472;2022-11-14T16:33:02;6.80;99.90
15364;DHT22;7781;49.690;6.472;2022-11-14T16:35:50;6.80;99.90
15364;DHT22;7781;49.690;6.472;2022-11-14T16:38:42;6.80;99.90
15364;DHT22;7781;49.690;6.472;2022-11-14T16:41:36;6.80;99.90
15364;DHT22;7781;49.690;6.472;2022-11-14T16:44:23;6.80;99.90
15364;DHT22;7781;49.690;6.472;2022-11-14T16:47:12;6.80;99.90
15364;DHT22;7781;49.690;6.472;2022-11-14T16:50:01;6.80;99.90
15364;DHT22;7781;49.690;6.472;2022-11-14T16:52:48;6.80;99.90
15364;DHT22;7781;49.690;6.472;2022-11-14T16:55:38;6.80;99.90
15364;DHT22;7781;49.690;6.472;2022-11-14T16:58:29;6.80;99.90
15364;DHT22;7781;49.690;6.472;2022-11-14T17:01:18;6.80;99.90
15364;DHT22;7781;49.690;6.472;2022-11-14T17:04:06;6.90;99.90
15364;DHT22;7781;49.690;6.472;2022-11-14T17:06:53;6.90;99.90
15364;DHT22;7781;49.690;6.472;2022-11-14T17:09:41;6.80;99.90
15364;DHT22;7781;49.690;6.472;2022-11-14T17:12:33;6.90;99.90
15364;DHT22;7781;49.690;6.472;2022-11-14T17:15:23;6.90;99.90
15364;DHT22;7781;49.690;6.472;2022-11-14T17:18:10;6.90;99.90
15364;DHT22;7781;49.690;6.472;2022-11-14T17:21:02;6.90;99.90
15364;DHT22;7781;49.690;6.472;2022-11-14T17:23:56;6.90;99.90
15364;DHT22;7781;49.690;6.472;2022-11-14T17:26:45;6.90;99.90
15364;DHT22;7781;49.690;6.472;2022-11-14T17:29:35;6.90;99.90
15364;DHT22;7781;49.690;6.472;2022-11-14T17:32:29;6.90;99.90
15364;DHT22;7781;49.690;6.472;2022-11-14T17:35:16;6.90;99.90
15364;DHT22;7781;49.690;6.472;2022-11-14T17:38:03;6.90;99.90
15364;DHT22;7781;49.690;6.472;2022-11-14T17:40:55;6.90;99.90
15364;DHT22;7781;49.690;6.472;2022-11-14T17:43:43;6.80;99.90
15364;DHT22;7781;49.690;6.472;2022-11-14T17:46:32;6.80;99.90
15364;DHT22;7781;49.690;6.472;2022-11-14T17:49:19;6.80;99.90
15364;DHT22;7781;49.690;6.472;2022-11-14T17:52:07;6.80;99.90
15364;DHT22;7781;49.690;6.472;2022-11-14T17:54:55;6.80;99.90
15364;DHT22;7781;49.690;6.472;2022-11-14T17:57:42;6.80;99.90
15364;DHT22;7781;49.690;6.472;2022-11-14T18:00:30;6.70;99.90
15364;DHT22;7781;49.690;6.472;2022-11-14T18:03:19;6.70;99.90
15364;DHT22;7781;49.690;6.472;2022-11-14T18:06:07;6.70;99.90
15364;DHT22;7781;49.690;6.472;2022-11-14T18:08:55;6.70;99.90
15364;DHT22;7781;49.690;6.472;2022-11-14T18:11:45;6.70;99.90
15364;DHT22;7781;49.690;6.472;2022-11-14T18:14:33;6.70;99.90
15364;DHT22;7781;49.690;6.472;2022-11-14T18:17:21;6.80;99.90
15364;DHT22;7781;49.690;6.472;2022-11-14T18:20:10;6.70;99.90
15364;DHT22;7781;49.690;6.472;2022-11-14T18:22:57;6.70;99.90
15364;DHT22;7781;49.690;6.472;2022-11-14T18:25:45;6.70;99.90
15364;DHT22;7781;49.690;6.472;2022-11-14T18:28:32;6.70;99.90
15364;DHT22;7781;49.690;6.472;2022-11-14T18:31:23;6.70;99.90
15364;DHT22;7781;49.690;6.472;2022-11-14T18:34:11;6.70;99.90
15364;DHT22;7781;49.690;6.472;2022-11-14T18:37:00;6.70;99.90
15364;DHT22;7781;49.690;6.472;2022-11-14T18:39:47;6.70;99.90
15364;DHT22;7781;49.690;6.472;2022-11-14T18:42:34;6.70;99.90
15364;DHT22;7781;49.690;6.472;2022-11-14T18:45:24;6.70;99.90
15364;DHT22;7781;49.690;6.472;2022-11-14T18:48:11;6.70;99.90
15364;DHT22;7781;49.690;6.472;2022-11-14T18:51:02;6.70;99.90
15364;DHT22;7781;49.690;6.472;2022-11-14T18:53:51;6.80;99.90
15364;DHT22;7781;49.690;6.472;2022-11-14T18:56:40;6.70;99.90